sensor_id;sensor_type;location;lat;lon;timestamp;pressure;altitude;pressure_sealevel;temperature;humidity
70343;BME280;57767;42.068;24.752;2022-12-10T00:01:09;98463.50;;;8.78;82.08
70343;BME280;57767;42.068;24.752;2022-12-10T00:02:11;98440.06;;;8.70;81.91
70343;BME280;57767;42.068;24.752;2022-12-10T00:03:13;98456.63;;;8.77;82.08
70343;BME280;57767;42.068;24.752;2022-12-10T00:04:15;98456.25;;;8.74;82.63
70343;BME280;57767;42.068;24.752;2022-12-10T00:05:17;98453.22;;;8.70;82.06
70343;BME280;57767;42.068;24.752;2022-12-10T00:06:21;98432.97;;;8.64;82.48
70343;BME280;57767;42.068;24.752;2022-12-10T00:07:23;98429.97;;;8.60;81.66
70343;BME280;57767;42.068;24.752;2022-12-10T00:08:25;98440.88;;;8.64;82.22
70343;BME280;57767;42.068;24.752;2022-12-10T00:09:26;98456.84;;;8.69;82.18
70343;BME280;57767;42.068;24.752;2022-12-10T00:10:28;98453.22;;;8.70;82.84
70343;BME280;57767;42.068;24.752;2022-12-10T00:11:30;98449.13;;;8.74;82.15
70343;BME280;57767;42.068;24.752;2022-12-10T00:12:32;98446.94;;;8.71;82.55
70343;BME280;57767;42.068;24.752;2022-12-10T00:13:34;98462.72;;;8.71;82.60
70343;BME280;57767;42.068;24.752;2022-12-10T00:14:37;98459.91;;;8.73;82.56
70343;BME280;57767;42.068;24.752;2022-12-10T00:15:38;98462.09;;;8.76;82.01
70343;BME280;57767;42.068;24.752;2022-12-10T00:16:40;98446.09;;;8.77;82.25
70343;BME280;57767;42.068;24.752;2022-12-10T00:17:42;98444.91;;;8.73;82.04
70343;BME280;57767;42.068;24.752;2022-12-10T00:18:44;98456.84;;;8.82;81.75
70343;BME280;57767;42.068;24.752;2022-12-10T00:19:46;98455.81;;;8.83;81.53
70343;BME280;57767;42.068;24.752;2022-12-10T00:20:47;98448.72;;;8.77;81.54
70343;BME280;57767;42.068;24.752;2022-12-10T00:21:49;98437.19;;;8.78;82.26
70343;BME280;57767;42.068;24.752;2022-12-10T00:22:51;98440.44;;;8.80;82.17
70343;BME280;57767;42.068;24.752;2022-12-10T00:23:53;98453.59;;;8.80;81.70
70343;BME280;57767;42.068;24.752;2022-12-10T00:24:55;98457.44;;;8.84;81.79
70343;BME280;57767;42.068;24.752;2022-12-10T00:26:15;98445.28;;;8.77;81.55
70343;BME280;57767;42.068;24.752;2022-12-10T00:27:17;98445.69;;;8.80;81.99
70343;BME280;57767;42.068;24.752;2022-12-10T00:28:19;98439.22;;;8.76;81.10
70343;BME280;57767;42.068;24.752;2022-12-10T00:29:20;98441.25;;;8.81;81.63
70343;BME280;57767;42.068;24.752;2022-12-10T00:30:22;98452.59;;;8.81;81.69
70343;BME280;57767;42.068;24.752;2022-12-10T00:31:29;98458.47;;;8.83;81.69
70343;BME280;57767;42.068;24.752;2022-12-10T00:32:31;98450.97;;;8.80;81.98
70343;BME280;57767;42.068;24.752;2022-12-10T00:33:33;98447.31;;;8.81;81.80
70343;BME280;57767;42.068;24.752;2022-12-10T00:34:35;98440.03;;;8.77;81.30
70343;BME280;57767;42.068;24.752;2022-12-10T00:35:37;98454.41;;;8.81;81.64
70343;BME280;57767;42.068;24.752;2022-12-10T00:36:44;98457.00;;;8.87;81.21
70343;BME280;57767;42.068;24.752;2022-12-10T00:37:46;98457.81;;;8.88;81.13
70343;BME280;57767;42.068;24.752;2022-12-10T00:38:49;98458.47;;;8.83;81.39
70343;BME280;57767;42.068;24.752;2022-12-10T00:39:51;98456.63;;;8.77;81.89
70343;BME280;57767;42.068;24.752;2022-12-10T00:40:52;98455.00;;;8.76;81.79
70343;BME280;57767;42.068;24.752;2022-12-10T00:41:54;98449.56;;;8.71;82.43
70343;BME280;57767;42.068;24.752;2022-12-10T00:42:56;98449.13;;;8.74;81.92
70343;BME280;57767;42.068;24.752;2022-12-10T00:43:58;98447.53;;;8.80;81.61
70343;BME280;57767;42.068;24.752;2022-12-10T00:44:59;98436.81;;;8.68;82.38
70343;BME280;57767;42.068;24.752;2022-12-10T00:46:01;98442.69;;;8.70;81.79
70343;BME280;57767;42.068;24.752;2022-12-10T00:47:03;98440.06;;;8.70;81.99
70343;BME280;57767;42.068;24.752;2022-12-10T00:48:05;98446.91;;;8.78;82.02
70343;BME280;57767;42.068;24.752;2022-12-10T00:49:07;98448.72;;;8.77;81.89
70343;BME280;57767;42.068;24.752;2022-12-10T00:50:09;98417.63;;;8.61;82.24
70343;BME280;57767;42.068;24.752;2022-12-10T00:51:14;98443.50;;;8.71;81.57
70343;BME280;57767;42.068;24.752;2022-12-10T00:52:16;98456.22;;;8.80;81.34
70343;BME280;57767;42.068;24.752;2022-12-10T00:53:18;98463.72;;;8.77;82.03
70343;BME280;57767;42.068;24.752;2022-12-10T00:54:20;98474.84;;;8.79;82.47
70343;BME280;57767;42.068;24.752;2022-12-10T00:55:21;98459.47;;;8.76;82.49
70343;BME280;57767;42.068;24.752;2022-12-10T00:56:27;98463.31;;;8.80;82.15
70343;BME280;57767;42.068;24.752;2022-12-10T00:57:29;98472.63;;;8.82;82.43
70343;BME280;57767;42.068;24.752;2022-12-10T00:58:32;98466.34;;;8.83;81.61
70343;BME280;57767;42.068;24.752;2022-12-10T00:59:34;98454.19;;;8.82;82.25
70343;BME280;57767;42.068;24.752;2022-12-10T01:00:36;98448.13;;;8.82;81.84
70343;BME280;57767;42.068;24.752;2022-12-10T01:01:40;98458.06;;;8.86;81.65
70343;BME280;57767;42.068;24.752;2022-12-10T01:02:43;98462.72;;;8.84;82.02
70343;BME280;57767;42.068;24.752;2022-12-10T01:03:46;98459.47;;;8.82;82.33
70343;BME280;57767;42.068;24.752;2022-12-10T01:04:52;98446.91;;;8.78;81.91
70343;BME280;57767;42.068;24.752;2022-12-10T01:05:54;98447.31;;;8.75;82.66
70343;BME280;57767;42.068;24.752;2022-12-10T01:06:55;98450.59;;;8.70;81.82
70343;BME280;57767;42.068;24.752;2022-12-10T01:07:57;98459.06;;;8.79;82.35
70343;BME280;57767;42.068;24.752;2022-12-10T01:09:01;98457.84;;;8.81;82.44
70343;BME280;57767;42.068;24.752;2022-12-10T01:10:04;98463.72;;;8.83;82.49
70343;BME280;57767;42.068;24.752;2022-12-10T01:11:07;98449.53;;;8.84;82.58
70343;BME280;57767;42.068;24.752;2022-12-10T01:12:08;98444.88;;;8.86;81.94
70343;BME280;57767;42.068;24.752;2022-12-10T01:13:10;98439.63;;;8.80;81.90
70343;BME280;57767;42.068;24.752;2022-12-10T01:14:16;98436.38;;;8.78;82.09
70343;BME280;57767;42.068;24.752;2022-12-10T01:15:18;98442.47;;;8.85;82.58
70343;BME280;57767;42.068;24.752;2022-12-10T01:16:21;98450.16;;;8.86;82.11
70343;BME280;57767;42.068;24.752;2022-12-10T01:17:23;98452.78;;;8.86;82.66
70343;BME280;57767;42.068;24.752;2022-12-10T01:18:25;98431.13;;;8.84;82.35
70343;BME280;57767;42.068;24.752;2022-12-10T01:19:26;98420.59;;;8.84;82.30
70343;BME280;57767;42.068;24.752;2022-12-10T01:20:28;98418.16;;;8.83;82.14
70343;BME280;57767;42.068;24.752;2022-12-10T01:21:30;98413.09;;;8.75;82.50
70343;BME280;57767;42.068;24.752;2022-12-10T01:22:31;98421.00;;;8.81;82.07
70343;BME280;57767;42.068;24.752;2022-12-10T01:23:39;98417.16;;;8.84;82.77
70343;BME280;57767;42.068;24.752;2022-12-10T01:24:41;98407.63;;;8.83;82.55
70343;BME280;57767;42.068;24.752;2022-12-10T01:25:43;98403.97;;;8.77;82.46
70343;BME280;57767;42.068;24.752;2022-12-10T01:26:45;98408.22;;;8.78;82.72
70343;BME280;57767;42.068;24.752;2022-12-10T01:27:46;98417.94;;;8.84;82.09
70343;BME280;57767;42.068;24.752;2022-12-10T01:28:49;98410.88;;;8.85;82.36
70343;BME280;57767;42.068;24.752;2022-12-10T01:29:51;98399.53;;;8.84;82.12
70343;BME280;57767;42.068;24.752;2022-12-10T01:30:53;98400.34;;;8.78;83.25
70343;BME280;57767;42.068;24.752;2022-12-10T01:31:56;98407.03;;;8.74;83.06
70343;BME280;57767;42.068;24.752;2022-12-10T01:32:58;98412.28;;;8.74;83.42
70343;BME280;57767;42.068;24.752;2022-12-10T01:34:01;98415.31;;;8.78;83.22
70343;BME280;57767;42.068;24.752;2022-12-10T01:35:03;98400.75;;;8.75;83.47
70343;BME280;57767;42.068;24.752;2022-12-10T01:36:13;98405.59;;;8.78;82.71
70343;BME280;57767;42.068;24.752;2022-12-10T01:37:15;98405.41;;;8.80;83.36
70343;BME280;57767;42.068;24.752;2022-12-10T01:38:17;98403.56;;;8.80;82.34
70343;BME280;57767;42.068;24.752;2022-12-10T01:39:20;98394.66;;;8.81;82.67
70343;BME280;57767;42.068;24.752;2022-12-10T01:40:22;98392.28;;;8.73;83.27
70343;BME280;57767;42.068;24.752;2022-12-10T01:42:28;98395.47;;;8.75;82.73
70343;BME280;57767;42.068;24.752;2022-12-10T01:45:51;98398.31;;;8.80;82.40
70343;BME280;57767;42.068;24.752;2022-12-10T01:46:58;98396.50;;;8.74;83.22
70343;BME280;57767;42.068;24.752;2022-12-10T01:48:02;98400.97;;;8.74;83.00
70343;BME280;57767;42.068;24.752;2022-12-10T01:49:17;98397.09;;;8.76;82.94
70343;BME280;57767;42.068;24.752;2022-12-10T01:50:19;98390.63;;;8.79;83.24
70343;BME280;57767;42.068;24.752;2022-12-10T01:51:23;98397.50;;;8.80;82.52
70343;BME280;57767;42.068;24.752;2022-12-10T01:52:25;98399.53;;;8.78;83.18
70343;BME280;57767;42.068;24.752;2022-12-10T01:53:27;98396.09;;;8.77;82.79
70343;BME280;57767;42.068;24.752;2022-12-10T01:54:32;98398.13;;;8.75;82.42
70343;BME280;57767;42.068;24.752;2022-12-10T01:56:44;98388.00;;;8.79;83.04
70343;BME280;57767;42.068;24.752;2022-12-10T01:57:46;98385.75;;;8.76;82.95
70343;BME280;57767;42.068;24.752;2022-12-10T01:58:50;98384.19;;;8.68;82.60
70343;BME280;57767;42.068;24.752;2022-12-10T02:00:03;98385.78;;;8.69;83.57
70343;BME280;57767;42.068;24.752;2022-12-10T02:01:21;98373.25;;;8.71;82.92
70343;BME280;57767;42.068;24.752;2022-12-10T02:05:45;98369.84;;;8.51;83.48
70343;BME280;57767;42.068;24.752;2022-12-10T02:08:43;98361.94;;;8.51;83.76
70343;BME280;57767;42.068;24.752;2022-12-10T02:09:54;98359.16;;;8.46;83.91
70343;BME280;57767;42.068;24.752;2022-12-10T02:11:11;98375.72;;;8.53;84.24
70343;BME280;57767;42.068;24.752;2022-12-10T02:12:35;98377.72;;;8.51;83.99
70343;BME280;57767;42.068;24.752;2022-12-10T02:13:41;98367.03;;;8.39;84.58
70343;BME280;57767;42.068;24.752;2022-12-10T02:15:03;98383.84;;;8.45;83.79
70343;BME280;57767;42.068;24.752;2022-12-10T02:17:24;98368.47;;;8.48;83.79
70343;BME280;57767;42.068;24.752;2022-12-10T02:18:31;98357.31;;;8.40;84.52
70343;BME280;57767;42.068;24.752;2022-12-10T02:21:02;98361.78;;;8.46;84.17
70343;BME280;57767;42.068;24.752;2022-12-10T02:22:05;98364.56;;;8.51;84.20
70343;BME280;57767;42.068;24.752;2022-12-10T02:23:14;98365.19;;;8.53;84.23
70343;BME280;57767;42.068;24.752;2022-12-10T02:24:23;98365.59;;;8.50;83.20
70343;BME280;57767;42.068;24.752;2022-12-10T02:29:53;98353.88;;;8.46;83.43
70343;BME280;57767;42.068;24.752;2022-12-10T02:30:56;98361.38;;;8.42;83.74
70343;BME280;57767;42.068;24.752;2022-12-10T02:32:13;98370.88;;;8.43;83.86
70343;BME280;57767;42.068;24.752;2022-12-10T02:33:17;98364.81;;;8.43;83.18
70343;BME280;57767;42.068;24.752;2022-12-10T02:34:21;98359.56;;;8.43;83.68
70343;BME280;57767;42.068;24.752;2022-12-10T02:35:27;98372.28;;;8.39;83.64
70343;BME280;57767;42.068;24.752;2022-12-10T02:36:35;98375.13;;;8.38;83.73
70343;BME280;57767;42.068;24.752;2022-12-10T02:37:45;98371.50;;;8.32;83.96
70343;BME280;57767;42.068;24.752;2022-12-10T02:38:49;98372.13;;;8.34;83.63
70343;BME280;57767;42.068;24.752;2022-12-10T02:39:53;98373.31;;;8.38;84.34
70343;BME280;57767;42.068;24.752;2022-12-10T02:41:05;98374.56;;;8.36;83.79
70343;BME280;57767;42.068;24.752;2022-12-10T02:42:09;98380.00;;;8.34;84.65
70343;BME280;57767;42.068;24.752;2022-12-10T02:43:13;98392.31;;;8.27;84.02
70343;BME280;57767;42.068;24.752;2022-12-10T02:44:17;98405.28;;;8.28;84.43
70343;BME280;57767;42.068;24.752;2022-12-10T02:45:22;98387.25;;;8.25;84.64
70343;BME280;57767;42.068;24.752;2022-12-10T02:46:25;98382.66;;;8.34;84.45
70343;BME280;57767;42.068;24.752;2022-12-10T02:47:32;98386.28;;;8.33;83.58
70343;BME280;57767;42.068;24.752;2022-12-10T02:48:35;98390.53;;;8.34;84.06
70343;BME280;57767;42.068;24.752;2022-12-10T02:49:39;98376.75;;;8.25;84.04
70343;BME280;57767;42.068;24.752;2022-12-10T02:50:42;98383.25;;;8.23;84.37
70343;BME280;57767;42.068;24.752;2022-12-10T02:51:44;98381.38;;;8.23;84.65
70343;BME280;57767;42.068;24.752;2022-12-10T02:52:46;98369.69;;;8.19;84.32
70343;BME280;57767;42.068;24.752;2022-12-10T02:53:48;98370.09;;;8.16;84.32
70343;BME280;57767;42.068;24.752;2022-12-10T02:54:50;98390.28;;;8.29;84.44
70343;BME280;57767;42.068;24.752;2022-12-10T02:57:49;98376.75;;;8.25;84.37
70343;BME280;57767;42.068;24.752;2022-12-10T03:00:22;98369.69;;;8.19;84.61
70343;BME280;57767;42.068;24.752;2022-12-10T03:03:24;98370.28;;;8.21;84.54
70343;BME280;57767;42.068;24.752;2022-12-10T03:07:20;98378.38;;;8.13;85.45
70343;BME280;57767;42.068;24.752;2022-12-10T03:08:34;98377.78;;;8.18;85.08
70343;BME280;57767;42.068;24.752;2022-12-10T03:10:10;98373.09;;;8.13;84.55
70343;BME280;57767;42.068;24.752;2022-12-10T03:11:20;98377.97;;;8.16;85.25
70343;BME280;57767;42.068;24.752;2022-12-10T03:12:36;98381.22;;;8.18;84.60
70343;BME280;57767;42.068;24.752;2022-12-10T03:14:45;98366.84;;;8.14;84.55
70343;BME280;57767;42.068;24.752;2022-12-10T03:15:48;98373.31;;;8.18;84.75
70343;BME280;57767;42.068;24.752;2022-12-10T03:16:56;98367.03;;;8.19;84.88
70343;BME280;57767;42.068;24.752;2022-12-10T03:18:01;98355.53;;;8.20;84.86
70343;BME280;57767;42.068;24.752;2022-12-10T03:19:08;98356.31;;;8.21;84.71
70343;BME280;57767;42.068;24.752;2022-12-10T03:20:15;98360.34;;;8.23;84.34
70343;BME280;57767;42.068;24.752;2022-12-10T03:21:18;98361.97;;;8.24;84.39
70343;BME280;57767;42.068;24.752;2022-12-10T03:22:20;98364.81;;;8.30;84.47
70343;BME280;57767;42.068;24.752;2022-12-10T03:23:22;98349.44;;;8.26;84.17
70343;BME280;57767;42.068;24.752;2022-12-10T03:24:25;98336.06;;;8.28;84.26
70343;BME280;57767;42.068;24.752;2022-12-10T03:25:30;98341.56;;;8.20;84.85
70343;BME280;57767;42.068;24.752;2022-12-10T03:26:33;98341.94;;;8.23;84.74
70343;BME280;57767;42.068;24.752;2022-12-10T03:27:36;98345.78;;;8.27;84.41
70343;BME280;57767;42.068;24.752;2022-12-10T03:28:46;98349.03;;;8.30;84.13
70343;BME280;57767;42.068;24.752;2022-12-10T03:29:52;98355.50;;;8.27;84.35
70343;BME280;57767;42.068;24.752;2022-12-10T03:30:55;98345.81;;;8.21;84.64
70343;BME280;57767;42.068;24.752;2022-12-10T03:31:59;98352.25;;;8.25;84.18
70343;BME280;57767;42.068;24.752;2022-12-10T03:33:02;98346.19;;;8.24;84.36
70343;BME280;57767;42.068;24.752;2022-12-10T03:34:05;98342.94;;;8.29;84.01
70343;BME280;57767;42.068;24.752;2022-12-10T03:35:08;98343.75;;;8.30;84.53
70343;BME280;57767;42.068;24.752;2022-12-10T03:36:10;98355.28;;;8.28;84.09
70343;BME280;57767;42.068;24.752;2022-12-10T03:37:13;98339.75;;;8.20;84.45
70343;BME280;57767;42.068;24.752;2022-12-10T03:38:15;98334.25;;;8.28;84.07
70343;BME280;57767;42.068;24.752;2022-12-10T03:39:17;98340.53;;;8.27;84.19
70343;BME280;57767;42.068;24.752;2022-12-10T03:40:22;98331.25;;;8.18;84.18
70343;BME280;57767;42.068;24.752;2022-12-10T03:41:24;98336.06;;;8.28;84.41
70343;BME280;57767;42.068;24.752;2022-12-10T03:42:26;98336.28;;;8.26;84.01
70343;BME280;57767;42.068;24.752;2022-12-10T03:43:27;98330.00;;;8.27;83.67
70343;BME280;57767;42.068;24.752;2022-12-10T03:44:32;98335.88;;;8.30;83.94
70343;BME280;57767;42.068;24.752;2022-12-10T03:45:34;98344.41;;;8.32;83.92
70343;BME280;57767;42.068;24.752;2022-12-10T03:46:35;98335.25;;;8.27;83.91
70343;BME280;57767;42.068;24.752;2022-12-10T03:47:37;98335.50;;;8.33;83.90
70343;BME280;57767;42.068;24.752;2022-12-10T03:48:39;98335.28;;;8.34;84.14
70343;BME280;57767;42.068;24.752;2022-12-10T03:49:42;98333.03;;;8.38;83.83
70343;BME280;57767;42.068;24.752;2022-12-10T03:50:43;98333.44;;;8.41;83.68
70343;BME280;57767;42.068;24.752;2022-12-10T03:51:45;98316.66;;;8.29;83.33
70343;BME280;57767;42.068;24.752;2022-12-10T03:52:47;98325.34;;;8.36;83.34
70343;BME280;57767;42.068;24.752;2022-12-10T03:53:48;98327.78;;;8.38;83.47
70343;BME280;57767;42.068;24.752;2022-12-10T03:54:51;98332.47;;;8.36;82.97
70343;BME280;57767;42.068;24.752;2022-12-10T03:55:52;98329.22;;;8.34;83.91
70343;BME280;57767;42.068;24.752;2022-12-10T03:56:54;98326.16;;;8.23;83.05
70343;BME280;57767;42.068;24.752;2022-12-10T03:57:56;98345.78;;;8.27;84.10
70343;BME280;57767;42.068;24.752;2022-12-10T03:58:57;98334.06;;;8.30;83.59
70343;BME280;57767;42.068;24.752;2022-12-10T03:59:59;98320.69;;;8.25;83.83
70343;BME280;57767;42.068;24.752;2022-12-10T04:01:02;98324.34;;;8.31;83.87
70343;BME280;57767;42.068;24.752;2022-12-10T04:02:04;98317.47;;;8.30;83.78
70343;BME280;57767;42.068;24.752;2022-12-10T04:03:05;98307.97;;;8.22;83.61
70343;BME280;57767;42.068;24.752;2022-12-10T04:04:08;98322.72;;;8.30;83.43
70343;BME280;57767;42.068;24.752;2022-12-10T04:05:09;98318.66;;;8.27;83.67
70343;BME280;57767;42.068;24.752;2022-12-10T04:06:17;98335.28;;;8.34;83.94
70343;BME280;57767;42.068;24.752;2022-12-10T04:07:19;98334.84;;;8.37;83.08
70343;BME280;57767;42.068;24.752;2022-12-10T04:08:21;98338.50;;;8.36;83.50
70343;BME280;57767;42.068;24.752;2022-12-10T04:09:22;98333.03;;;8.31;83.82
70343;BME280;57767;42.068;24.752;2022-12-10T04:10:24;98335.50;;;8.33;83.24
70343;BME280;57767;42.068;24.752;2022-12-10T04:11:26;98345.19;;;8.39;83.64
70343;BME280;57767;42.068;24.752;2022-12-10T04:12:28;98350.44;;;8.39;83.37
70343;BME280;57767;42.068;24.752;2022-12-10T04:13:31;98339.72;;;8.40;83.72
70343;BME280;57767;42.068;24.752;2022-12-10T04:14:52;98313.44;;;8.20;83.34
70343;BME280;57767;42.068;24.752;2022-12-10T04:16:21;98331.25;;;8.18;83.97
70343;BME280;57767;42.068;24.752;2022-12-10T04:17:31;98346.63;;;8.08;84.42
70343;BME280;57767;42.068;24.752;2022-12-10T04:18:34;98336.13;;;8.08;85.03
70343;BME280;57767;42.068;24.752;2022-12-10T04:19:36;98333.66;;;8.13;84.45
70343;BME280;57767;42.068;24.752;2022-12-10T04:20:38;98328.84;;;8.10;84.79
70343;BME280;57767;42.068;24.752;2022-12-10T04:21:58;98335.88;;;8.16;85.11
70343;BME280;57767;42.068;24.752;2022-12-10T04:23:18;98337.28;;;8.25;84.67
70343;BME280;57767;42.068;24.752;2022-12-10T04:24:38;98328.78;;;8.23;84.42
70343;BME280;57767;42.068;24.752;2022-12-10T04:25:59;98330.03;;;8.21;84.51
70343;BME280;57767;42.068;24.752;2022-12-10T04:27:22;98330.41;;;8.24;84.18
70343;BME280;57767;42.068;24.752;2022-12-10T04:28:25;98331.63;;;8.28;84.55
70343;BME280;57767;42.068;24.752;2022-12-10T04:29:28;98317.47;;;8.30;84.46
70343;BME280;57767;42.068;24.752;2022-12-10T04:30:30;98307.16;;;8.21;84.45
70343;BME280;57767;42.068;24.752;2022-12-10T04:31:32;98324.34;;;8.31;84.21
70343;BME280;57767;42.068;24.752;2022-12-10T04:32:34;98325.56;;;8.28;84.17
70343;BME280;57767;42.068;24.752;2022-12-10T04:33:35;98335.25;;;8.27;84.37
70343;BME280;57767;42.068;24.752;2022-12-10T04:34:37;98333.03;;;8.24;83.98
70343;BME280;57767;42.068;24.752;2022-12-10T04:35:39;98317.88;;;8.26;84.51
70343;BME280;57767;42.068;24.752;2022-12-10T04:36:41;98316.06;;;8.14;84.03
70343;BME280;57767;42.068;24.752;2022-12-10T04:37:42;98329.25;;;8.07;85.10
70343;BME280;57767;42.068;24.752;2022-12-10T04:38:44;98345.22;;;8.06;85.17
70343;BME280;57767;42.068;24.752;2022-12-10T04:39:47;98342.38;;;8.01;85.31
70343;BME280;57767;42.068;24.752;2022-12-10T04:40:50;98333.28;;;8.03;85.43
70343;BME280;57767;42.068;24.752;2022-12-10T04:41:52;98322.56;;;7.98;85.53
70343;BME280;57767;42.068;24.752;2022-12-10T04:42:53;98336.50;;;7.99;85.75
70343;BME280;57767;42.068;24.752;2022-12-10T04:43:55;98343.81;;;7.90;86.04
70343;BME280;57767;42.068;24.752;2022-12-10T04:44:57;98341.78;;;7.92;86.08
70343;BME280;57767;42.068;24.752;2022-12-10T04:45:59;98349.47;;;7.94;85.95
70343;BME280;57767;42.068;24.752;2022-12-10T04:47:01;98343.81;;;7.97;85.93
70343;BME280;57767;42.068;24.752;2022-12-10T04:48:03;98351.09;;;7.95;86.55
70343;BME280;57767;42.068;24.752;2022-12-10T04:49:05;98362.63;;;7.94;86.51
70343;BME280;57767;42.068;24.752;2022-12-10T04:50:07;98351.47;;;7.98;86.83
70343;BME280;57767;42.068;24.752;2022-12-10T04:51:09;98349.44;;;8.00;86.43
70343;BME280;57767;42.068;24.752;2022-12-10T04:52:12;98354.31;;;8.03;86.23
70343;BME280;57767;42.068;24.752;2022-12-10T04:53:14;98347.66;;;8.07;86.35
70343;BME280;57767;42.068;24.752;2022-12-10T04:54:16;98332.28;;;8.04;86.00
70343;BME280;57767;42.068;24.752;2022-12-10T04:55:18;98330.06;;;8.08;86.26
70343;BME280;57767;42.068;24.752;2022-12-10T04:56:20;98335.50;;;8.06;86.68
70343;BME280;57767;42.068;24.752;2022-12-10T04:57:21;98330.84;;;8.08;85.92
70343;BME280;57767;42.068;24.752;2022-12-10T04:58:23;98332.44;;;8.16;85.81
70343;BME280;57767;42.068;24.752;2022-12-10T04:59:25;98330.84;;;8.15;86.21
70343;BME280;57767;42.068;24.752;2022-12-10T05:00:27;98338.94;;;8.13;85.36
70343;BME280;57767;42.068;24.752;2022-12-10T05:01:29;98336.91;;;8.02;85.56
70343;BME280;57767;42.068;24.752;2022-12-10T05:02:31;98334.88;;;8.11;85.60
70343;BME280;57767;42.068;24.752;2022-12-10T05:03:33;98307.81;;;8.10;85.63
70343;BME280;57767;42.068;24.752;2022-12-10T05:04:35;98304.78;;;8.07;85.90
70343;BME280;57767;42.068;24.752;2022-12-10T05:05:37;98284.75;;;7.86;85.88
70343;BME280;57767;42.068;24.752;2022-12-10T05:06:39;98318.72;;;8.07;85.76
70343;BME280;57767;42.068;24.752;2022-12-10T05:07:41;98306.19;;;8.09;86.06
70343;BME280;57767;42.068;24.752;2022-12-10T05:08:43;98319.50;;;8.14;85.47
70343;BME280;57767;42.068;24.752;2022-12-10T05:09:45;98325.56;;;8.21;84.80
70343;BME280;57767;42.068;24.752;2022-12-10T05:10:46;98325.97;;;8.18;85.12
70343;BME280;57767;42.068;24.752;2022-12-10T05:11:48;98321.72;;;8.11;85.76
70343;BME280;57767;42.068;24.752;2022-12-10T05:12:50;98318.50;;;8.15;85.67
70343;BME280;57767;42.068;24.752;2022-12-10T05:13:53;98318.69;;;8.20;85.29
70343;BME280;57767;42.068;24.752;2022-12-10T05:14:55;98309.81;;;8.21;85.15
70343;BME280;57767;42.068;24.752;2022-12-10T05:15:56;98318.06;;;8.25;84.72
70343;BME280;57767;42.068;24.752;2022-12-10T05:16:58;98329.19;;;8.27;84.89
70343;BME280;57767;42.068;24.752;2022-12-10T05:18:00;98334.06;;;8.30;85.07
70343;BME280;57767;42.068;24.752;2022-12-10T05:19:02;98341.78;;;8.32;84.54
70343;BME280;57767;42.068;24.752;2022-12-10T05:20:04;98326.00;;;8.32;nan
70343;BME280;57767;42.068;24.752;2022-12-10T05:21:09;98332.22;;;8.37;84.14
70343;BME280;57767;42.068;24.752;2022-12-10T05:22:11;98304.34;;;8.23;84.07
70343;BME280;57767;42.068;24.752;2022-12-10T05:23:33;98343.56;;;8.44;83.27
70343;BME280;57767;42.068;24.752;2022-12-10T05:24:35;98337.91;;;8.41;83.92
70343;BME280;57767;42.068;24.752;2022-12-10T05:25:37;98342.38;;;8.34;83.67
70343;BME280;57767;42.068;24.752;2022-12-10T05:26:54;98332.22;;;8.31;83.85
70343;BME280;57767;42.068;24.752;2022-12-10T05:27:56;98320.72;;;8.32;83.80
70343;BME280;57767;42.068;24.752;2022-12-10T05:28:57;98323.31;;;8.38;83.93
70343;BME280;57767;42.068;24.752;2022-12-10T05:29:59;98320.28;;;8.41;83.64
70343;BME280;57767;42.068;24.752;2022-12-10T05:31:01;98323.13;;;8.40;83.92
70343;BME280;57767;42.068;24.752;2022-12-10T05:32:03;98323.13;;;8.40;83.56
70343;BME280;57767;42.068;24.752;2022-12-10T05:33:05;98318.66;;;8.40;83.63
70343;BME280;57767;42.068;24.752;2022-12-10T05:34:09;98313.25;;;8.35;83.18
70343;BME280;57767;42.068;24.752;2022-12-10T05:35:11;98325.16;;;8.38;83.25
70343;BME280;57767;42.068;24.752;2022-12-10T05:36:15;98324.53;;;8.42;82.80
70343;BME280;57767;42.068;24.752;2022-12-10T05:37:17;98325.94;;;8.45;83.17
70343;BME280;57767;42.068;24.752;2022-12-10T05:38:19;98317.25;;;8.44;83.10
70343;BME280;57767;42.068;24.752;2022-12-10T05:39:20;98313.63;;;8.39;82.71
70343;BME280;57767;42.068;24.752;2022-12-10T05:40:22;98325.53;;;8.48;83.08
70343;BME280;57767;42.068;24.752;2022-12-10T05:41:26;98328.38;;;8.46;83.11
70343;BME280;57767;42.068;24.752;2022-12-10T05:42:28;98320.28;;;8.41;83.68
70343;BME280;57767;42.068;24.752;2022-12-10T05:43:31;98319.88;;;8.44;82.78
70343;BME280;57767;42.068;24.752;2022-12-10T05:44:33;98318.88;;;8.45;82.72
70343;BME280;57767;42.068;24.752;2022-12-10T05:45:34;98311.19;;;8.44;83.10
70343;BME280;57767;42.068;24.752;2022-12-10T05:46:36;98327.13;;;8.49;83.34
70343;BME280;57767;42.068;24.752;2022-12-10T05:47:38;98325.75;;;8.46;82.84
70343;BME280;57767;42.068;24.752;2022-12-10T05:48:40;98326.13;;;8.50;82.62
70343;BME280;57767;42.068;24.752;2022-12-10T05:49:42;98328.56;;;8.51;82.70
70343;BME280;57767;42.068;24.752;2022-12-10T05:50:51;98307.53;;;8.45;82.88
70343;BME280;57767;42.068;24.752;2022-12-10T05:51:54;98327.75;;;8.51;82.27
70343;BME280;57767;42.068;24.752;2022-12-10T05:52:55;98325.13;;;8.51;82.60
70343;BME280;57767;42.068;24.752;2022-12-10T05:53:59;98322.47;;;8.51;82.69
70343;BME280;57767;42.068;24.752;2022-12-10T05:55:03;98325.31;;;8.49;82.43
70343;BME280;57767;42.068;24.752;2022-12-10T05:56:24;98327.13;;;8.49;83.17
70343;BME280;57767;42.068;24.752;2022-12-10T05:57:26;98323.94;;;8.47;82.37
70343;BME280;57767;42.068;24.752;2022-12-10T05:58:28;98317.88;;;8.40;83.21
70343;BME280;57767;42.068;24.752;2022-12-10T05:59:30;98321.34;;;8.34;83.15
70343;BME280;57767;42.068;24.752;2022-12-10T06:00:32;98313.44;;;8.34;82.92
70343;BME280;57767;42.068;24.752;2022-12-10T06:01:34;98310.97;;;8.39;83.45
70343;BME280;57767;42.068;24.752;2022-12-10T06:02:36;98317.47;;;8.43;83.41
70343;BME280;57767;42.068;24.752;2022-12-10T06:03:38;98322.72;;;8.43;82.97
70343;BME280;57767;42.068;24.752;2022-12-10T06:04:40;98322.31;;;8.46;83.06
70343;BME280;57767;42.068;24.752;2022-12-10T06:05:42;98321.09;;;8.48;83.34